createdAt,value
2023-04-12T00:02:19.946Z,7.90
2023-04-12T00:04:54.794Z,11.05
2023-04-12T00:07:24.411Z,9.32
2023-04-12T00:09:50.629Z,6.63
2023-04-12T00:12:18.589Z,11.30
2023-04-12T00:14:45.480Z,6.13
2023-04-12T00:17:12.235Z,6.15
2023-04-12T00:19:41.747Z,6.30
2023-04-12T00:22:08.643Z,6.20
2023-04-12T00:24:34.647Z,9.43
2023-04-12T00:27:01.456Z,6.88
2023-04-12T00:29:27.878Z,6.07
2023-04-12T00:31:54.057Z,8.82
2023-04-12T00:34:19.977Z,6.70
2023-04-12T00:36:46.071Z,9.30
2023-04-12T00:39:11.907Z,4.43
2023-04-12T00:41:37.746Z,9.27
2023-04-12T00:44:04.016Z,3.78
2023-04-12T00:46:30.451Z,11.63
2023-04-12T00:48:57.263Z,7.85
2023-04-12T00:51:24.823Z,6.70
2023-04-12T00:53:56.815Z,9.30
2023-04-12T00:56:27.096Z,6.93
2023-04-12T00:58:56.308Z,8.05
2023-04-12T01:01:22.339Z,8.38
2023-04-12T01:03:53.531Z,7.28
2023-04-12T01:06:36.688Z,7.68
2023-04-12T01:09:26.543Z,6.30
2023-04-12T01:12:30.552Z,8.27
2023-04-12T01:15:08.305Z,7.40
2023-04-12T01:17:59.370Z,4.47
2023-04-12T01:20:33.209Z,8.85
2023-04-12T01:23:20.501Z,5.25
2023-04-12T01:25:56.866Z,9.85
2023-04-12T01:28:28.558Z,11.27
2023-04-12T01:30:55.457Z,6.07
2023-04-12T01:33:23.407Z,10.90
2023-04-12T01:35:51.782Z,7.95
2023-04-12T01:38:18.327Z,6.60
2023-04-12T01:40:44.178Z,11.48
2023-04-12T01:43:12.438Z,4.10
2023-04-12T01:45:38.854Z,6.70
2023-04-12T01:48:10.186Z,8.13
2023-04-12T01:50:49.631Z,7.70
2023-04-12T01:53:27.949Z,11.30
2023-04-12T01:55:58.834Z,6.13
2023-04-12T01:58:25.053Z,10.30
2023-04-12T02:00:52.068Z,11.35
2023-04-12T02:03:21.025Z,10.27
2023-04-12T02:05:47.415Z,8.32
2023-04-12T02:08:13.616Z,7.85
2023-04-12T02:10:39.797Z,12.38
2023-04-12T02:13:05.885Z,7.13
2023-04-12T02:15:31.911Z,7.68
2023-04-12T02:17:58.828Z,6.13
2023-04-12T02:20:25.425Z,5.70
2023-04-12T02:22:52.961Z,5.63
2023-04-12T02:25:20.040Z,5.97
2023-04-12T02:27:46.361Z,10.50
2023-04-12T02:30:12.793Z,10.95
2023-04-12T02:32:44.893Z,8.13
2023-04-12T02:35:16.921Z,8.10
2023-04-12T02:37:46.074Z,6.72
2023-04-12T02:40:15.010Z,8.40
2023-04-12T02:42:44.060Z,9.13
2023-04-12T02:45:10.959Z,11.32
2023-04-12T02:47:37.362Z,6.70
2023-04-12T02:50:03.906Z,7.88
2023-04-12T02:52:30.001Z,6.38
2023-04-12T02:54:56.347Z,6.53
2023-04-12T02:57:24.815Z,7.50
2023-04-12T02:59:54.317Z,7.20
2023-04-12T03:02:21.443Z,5.97
2023-04-12T03:04:50.153Z,6.32
2023-04-12T03:07:20.104Z,6.85
2023-04-12T03:09:47.014Z,6.80
2023-04-12T03:12:14.724Z,4.20
2023-04-12T03:14:40.575Z,10.32
2023-04-12T03:17:06.521Z,7.22
2023-04-12T03:19:34.388Z,8.23
2023-04-12T03:22:00.817Z,6.15
2023-04-12T03:24:27.506Z,3.90
2023-04-12T03:26:54.412Z,4.65
2023-04-12T03:29:21.384Z,6.10
2023-04-12T03:31:47.425Z,3.47
2023-04-12T03:34:13.282Z,6.00
2023-04-12T03:36:39.160Z,3.00
2023-04-12T03:39:05.249Z,5.57
2023-04-12T03:41:31.083Z,3.22
2023-04-12T03:43:57.164Z,4.03
2023-04-12T03:46:23.220Z,7.07
2023-04-12T03:48:50.026Z,4.15
2023-04-12T03:51:15.864Z,6.13
2023-04-12T03:53:41.692Z,5.15
2023-04-12T03:56:07.892Z,4.60
2023-04-12T03:58:34.097Z,4.53
2023-04-12T04:01:05.293Z,6.68
2023-04-12T04:03:34.239Z,7.80
2023-04-12T04:06:03.525Z,4.80
2023-04-12T04:08:31.777Z,4.70
2023-04-12T04:10:58.154Z,3.47
2023-04-12T04:13:24.160Z,3.92
2023-04-12T04:15:51.662Z,5.68
2023-04-12T04:18:17.477Z,2.78
2023-04-12T04:20:43.338Z,4.07
2023-04-12T04:23:09.569Z,6.70
2023-04-12T04:25:38.562Z,4.57
2023-04-12T04:28:09.135Z,5.07
2023-04-12T04:30:38.117Z,4.68
2023-04-12T04:33:04.886Z,3.75
2023-04-12T04:35:30.855Z,2.47
2023-04-12T04:37:56.972Z,2.78
2023-04-12T04:40:24.207Z,3.85
2023-04-12T04:42:57.222Z,3.67
2023-04-12T04:45:27.469Z,3.17
2023-04-12T04:47:54.066Z,3.45
2023-04-12T04:50:21.344Z,2.90
2023-04-12T04:52:55.898Z,2.75
2023-04-12T04:55:21.884Z,2.65
2023-04-12T04:57:47.685Z,7.10
2023-04-12T05:00:13.790Z,2.50
2023-04-12T05:02:42.220Z,1.83
2023-04-12T05:05:13.000Z,2.67
2023-04-12T05:07:38.845Z,1.90
2023-04-12T05:10:05.539Z,2.20
2023-04-12T05:12:32.052Z,3.75
2023-04-12T05:15:10.557Z,2.22
2023-04-12T05:17:37.834Z,1.88
2023-04-12T05:20:06.979Z,2.97
2023-04-12T05:22:33.922Z,2.47
2023-04-12T05:25:00.729Z,3.30
2023-04-12T05:27:29.432Z,3.17
2023-04-12T05:29:58.346Z,5.15
2023-04-12T05:32:26.917Z,2.95
2023-04-12T05:34:52.823Z,3.70
2023-04-12T05:37:18.659Z,1.58
2023-04-12T05:39:44.636Z,2.97
2023-04-12T05:42:10.698Z,3.50
2023-04-12T05:44:37.889Z,3.78
2023-04-12T05:47:04.296Z,2.35
2023-04-12T05:49:30.848Z,2.22
2023-04-12T05:51:57.488Z,1.95
2023-04-12T05:54:24.732Z,1.58
2023-04-12T05:56:52.006Z,1.20
2023-04-12T05:59:20.458Z,1.95
2023-04-12T06:01:46.587Z,3.17
2023-04-12T06:04:13.264Z,1.23
2023-04-12T06:06:39.316Z,4.78
2023-04-12T06:09:05.197Z,2.58
2023-04-12T06:11:33.158Z,1.33
2023-04-12T06:14:00.146Z,2.40
2023-04-12T06:16:26.333Z,1.05
2023-04-12T06:18:52.252Z,4.00
2023-04-12T06:21:18.602Z,1.42
2023-04-12T06:23:44.456Z,2.80
2023-04-12T06:26:10.730Z,3.03
2023-04-12T06:28:36.623Z,3.45
2023-04-12T06:31:03.449Z,0.80
2023-04-12T06:33:29.628Z,0.80
2023-04-12T06:35:55.511Z,3.92
2023-04-12T06:38:21.312Z,1.63
2023-04-12T06:40:47.583Z,1.90
2023-04-12T06:43:19.627Z,0.88
2023-04-12T06:45:51.184Z,1.65
2023-04-12T06:48:17.042Z,0.95
2023-04-12T06:50:44.613Z,0.95
